createdAt,value
2018-11-10T00:01:49.724Z,9.13
2018-11-10T00:05:53.841Z,9.30
2018-11-10T00:09:58.158Z,8.30
2018-11-10T00:14:02.355Z,8.63
2018-11-10T00:18:06.908Z,8.50
2018-11-10T00:22:10.850Z,9.43
2018-11-10T00:26:15.799Z,7.67
2018-11-10T00:30:20.145Z,8.05
2018-11-10T00:34:24.460Z,8.00
2018-11-10T00:38:28.347Z,7.53
2018-11-10T00:42:32.549Z,7.43
2018-11-10T00:46:36.581Z,8.43
2018-11-10T00:50:40.533Z,7.33
2018-11-10T00:54:44.401Z,7.73
2018-11-10T00:58:48.297Z,7.33
2018-11-10T01:02:52.336Z,7.27
2018-11-10T01:06:56.604Z,7.67
2018-11-10T01:11:00.858Z,7.77
2018-11-10T01:15:05.974Z,7.10
2018-11-10T01:19:10.021Z,7.08
2018-11-10T01:23:14.005Z,7.00
2018-11-10T01:27:18.284Z,6.97
2018-11-10T01:31:22.487Z,7.50
2018-11-10T01:35:26.614Z,7.83
2018-11-10T01:39:31.039Z,6.83
2018-11-10T01:43:35.292Z,7.40
2018-11-10T01:47:39.397Z,7.17
2018-11-10T01:51:44.121Z,7.93
2018-11-10T01:55:48.554Z,7.67
2018-11-10T01:59:52.841Z,8.07
2018-11-10T02:03:57.176Z,8.10
2018-11-10T02:08:01.595Z,8.87
2018-11-10T02:12:06.106Z,8.67
2018-11-10T02:16:10.148Z,8.13
2018-11-10T02:20:15.170Z,8.97
2018-11-10T02:24:19.244Z,8.47
2018-11-10T02:28:23.619Z,8.37
2018-11-10T02:32:28.026Z,8.43
2018-11-10T02:36:32.295Z,8.40
2018-11-10T02:40:36.487Z,8.07
2018-11-10T02:44:40.745Z,8.40
2018-11-10T02:48:44.933Z,9.23
2018-11-10T02:52:49.138Z,8.73
2018-11-10T02:56:53.717Z,9.13
2018-11-10T03:00:58.337Z,9.30
2018-11-10T03:05:02.748Z,8.63
2018-11-10T03:09:08.403Z,8.37
2018-11-10T03:13:12.705Z,7.80
2018-11-10T03:17:17.376Z,8.53
2018-11-10T03:21:21.546Z,8.65
2018-11-10T03:25:25.522Z,8.00
2018-11-10T03:29:29.659Z,8.00
2018-11-10T03:33:34.231Z,7.63
2018-11-10T03:37:38.720Z,8.37
2018-11-10T03:41:43.335Z,8.07
2018-11-10T03:45:47.919Z,7.43
2018-11-10T03:49:52.197Z,7.50
2018-11-10T03:53:56.533Z,8.10
2018-11-10T03:58:00.711Z,8.20
2018-11-10T04:02:05.700Z,8.87
2018-11-10T04:06:09.792Z,7.72
2018-11-10T04:10:14.438Z,8.65
2018-11-10T04:14:18.570Z,9.33
2018-11-10T04:18:22.714Z,9.75
2018-11-10T04:22:32.275Z,9.17
2018-11-10T04:26:36.794Z,8.87
2018-11-10T04:30:40.934Z,9.07
2018-11-10T04:34:44.979Z,9.50
2018-11-10T04:38:49.166Z,9.20
2018-11-10T04:42:53.324Z,8.80
2018-11-10T04:46:57.390Z,8.13
2018-11-10T04:51:01.655Z,8.67
2018-11-10T04:55:06.127Z,8.67
2018-11-10T04:59:10.231Z,9.03
2018-11-10T05:03:15.340Z,8.37
2018-11-10T05:07:19.775Z,7.27
2018-11-10T05:11:23.853Z,5.80
2018-11-10T05:15:27.978Z,6.67
2018-11-10T05:19:32.318Z,7.83
2018-11-10T05:23:36.587Z,6.73
2018-11-10T05:27:41.295Z,5.90
2018-11-10T05:31:46.228Z,6.70
2018-11-10T05:35:50.524Z,6.00
2018-11-10T05:39:54.548Z,6.43
2018-11-10T05:43:58.580Z,5.40
2018-11-10T05:48:03.914Z,5.37
2018-11-10T05:52:08.152Z,5.95
2018-11-10T05:56:12.470Z,5.25
2018-11-10T06:00:16.772Z,4.25
2018-11-10T06:04:21.875Z,3.12
2018-11-10T06:08:26.055Z,3.50
2018-11-10T06:12:30.368Z,3.33
2018-11-10T06:16:35.041Z,4.37
2018-11-10T06:20:39.155Z,4.50
2018-11-10T06:24:43.392Z,4.90
2018-11-10T06:28:47.621Z,5.60
2018-11-10T06:32:52.076Z,6.63
2018-11-10T06:36:56.186Z,6.60
2018-11-10T06:41:00.361Z,7.10
2018-11-10T06:45:05.785Z,6.90
2018-11-10T06:49:09.843Z,7.40
2018-11-10T06:53:14.459Z,8.77
2018-11-10T06:57:18.904Z,8.08
2018-11-10T07:01:23.934Z,7.22
2018-11-10T07:05:28.340Z,6.73
2018-11-10T07:09:32.618Z,7.40
2018-11-10T07:13:36.667Z,6.67
2018-11-10T07:17:41.071Z,5.90
2018-11-10T07:21:45.098Z,5.90
2018-11-10T07:25:49.448Z,4.95
2018-11-10T07:29:53.726Z,5.13
2018-11-10T07:33:58.245Z,4.70
2018-11-10T07:38:02.458Z,4.92
2018-11-10T07:42:06.672Z,4.23
2018-11-10T07:46:10.860Z,4.30
2018-11-10T07:50:14.940Z,4.55
2018-11-10T07:54:19.411Z,4.50
2018-11-10T07:58:23.418Z,4.00
2018-11-10T08:02:27.696Z,4.20
2018-11-10T08:06:31.692Z,4.13
2018-11-10T08:10:36.516Z,4.40
2018-11-10T08:14:40.527Z,4.00
2018-11-10T08:18:44.703Z,3.77
2018-11-10T08:22:48.679Z,3.60
2018-11-10T08:26:52.834Z,3.17
2018-11-10T08:30:58.066Z,3.07
2018-11-10T08:35:02.102Z,2.80
2018-11-10T08:39:08.548Z,2.13
2018-11-10T08:43:12.420Z,1.90
2018-11-10T08:47:16.267Z,2.10
2018-11-10T08:51:20.176Z,2.20
2018-11-10T08:55:24.486Z,1.90
2018-11-10T08:59:28.705Z,1.27
2018-11-10T09:03:33.009Z,1.97
2018-11-10T09:07:37.375Z,1.87
2018-11-10T09:11:41.896Z,1.70
2018-11-10T09:15:46.393Z,2.03
2018-11-10T09:19:50.648Z,1.80
2018-11-10T09:23:55.012Z,1.90
2018-11-10T09:27:59.320Z,1.80
2018-11-10T09:32:03.663Z,1.85
2018-11-10T09:36:09.462Z,1.73
2018-11-10T09:40:15.518Z,1.85
2018-11-10T09:44:19.878Z,1.83
2018-11-10T09:48:24.086Z,1.57
2018-11-10T09:52:28.200Z,1.43
2018-11-10T09:56:33.123Z,1.37
2018-11-10T10:00:38.376Z,1.83
2018-11-10T10:04:42.854Z,1.60
2018-11-10T10:08:46.954Z,1.20
2018-11-10T10:12:51.002Z,1.43
2018-11-10T10:16:55.025Z,1.33
2018-11-10T10:20:59.329Z,1.40
2018-11-10T10:25:03.990Z,1.30
2018-11-10T10:29:08.541Z,1.20
2018-11-10T10:33:12.772Z,1.70
2018-11-10T10:37:16.761Z,1.52
2018-11-10T10:41:21.086Z,1.60
2018-11-10T10:45:25.167Z,1.30
2018-11-10T10:49:29.209Z,1.80
2018-11-10T10:53:33.253Z,1.50
2018-11-10T10:57:37.664Z,1.27
2018-11-10T11:01:47.019Z,1.30
2018-11-10T11:05:56.378Z,1.50
2018-11-10T11:10:00.460Z,1.20
2018-11-10T11:14:05.237Z,1.60
2018-11-10T11:18:09.495Z,1.42
2018-11-10T11:22:13.652Z,1.60
2018-11-10T11:26:18.080Z,1.50
2018-11-10T11:30:22.285Z,2.20
2018-11-10T11:34:26.380Z,1.98
2018-11-10T11:38:30.530Z,1.90
2018-11-10T11:42:34.827Z,1.57
2018-11-10T11:46:38.938Z,1.47
2018-11-10T11:50:42.967Z,1.30
2018-11-10T11:54:47.163Z,1.40
2018-11-10T11:58:52.401Z,1.35
2018-11-10T12:02:56.450Z,1.60
2018-11-10T12:07:00.441Z,1.80
2018-11-10T12:11:06.022Z,1.40
2018-11-10T12:15:11.809Z,1.50
2018-11-10T12:19:15.868Z,1.85
2018-11-10T12:23:20.797Z,1.30
2018-11-10T12:27:25.028Z,1.37
2018-11-10T12:31:29.138Z,1.47
2018-11-10T12:35:33.209Z,1.57
2018-11-10T12:39:38.654Z,1.70
2018-11-10T12:43:43.865Z,2.10
2018-11-10T12:47:47.916Z,1.97
2018-11-10T12:51:52.402Z,1.70
2018-11-10T12:55:56.482Z,1.90
2018-11-10T13:00:00.466Z,1.83
2018-11-10T13:04:06.442Z,2.47
2018-11-10T13:08:10.775Z,1.90
2018-11-10T13:12:15.010Z,2.35
2018-11-10T13:16:19.392Z,1.83
2018-11-10T13:20:23.351Z,2.00
2018-11-10T13:24:27.933Z,1.53
2018-11-10T13:28:32.196Z,1.73
2018-11-10T13:32:37.748Z,2.13
2018-11-10T13:36:42.263Z,1.77
2018-11-10T13:40:46.767Z,1.90
2018-11-10T13:44:50.841Z,1.50
2018-11-10T13:48:55.200Z,1.43
2018-11-10T13:52:59.508Z,1.40
2018-11-10T13:57:03.628Z,1.50
2018-11-10T14:01:07.783Z,1.47
2018-11-10T14:05:13.349Z,1.30
2018-11-10T14:09:17.822Z,1.70
2018-11-10T14:13:21.742Z,3.15
2018-11-10T14:17:26.231Z,1.40
2018-11-10T14:21:31.028Z,1.27
2018-11-10T14:25:34.951Z,1.60
2018-11-10T14:29:38.819Z,1.43
2018-11-10T14:33:42.739Z,1.37
2018-11-10T14:37:46.932Z,1.40
2018-11-10T14:41:50.947Z,1.43
2018-11-10T14:45:55.501Z,1.30
2018-11-10T14:49:59.386Z,1.27
2018-11-10T14:54:03.385Z,2.70
2018-11-10T14:58:07.276Z,1.90
2018-11-10T15:02:11.510Z,1.57
2018-11-10T15:06:15.368Z,2.30
2018-11-10T15:10:19.337Z,2.20
2018-11-10T15:14:23.227Z,2.40
2018-11-10T15:18:27.581Z,2.10
2018-11-10T15:22:31.497Z,1.90
2018-11-10T15:26:35.833Z,1.60
2018-11-10T15:30:39.825Z,1.73
2018-11-10T15:34:44.062Z,1.40
2018-11-10T15:38:48.803Z,1.17
2018-11-10T15:42:52.939Z,1.43
2018-11-10T15:46:56.893Z,1.85
2018-11-10T15:51:03.204Z,1.73
2018-11-10T15:55:11.194Z,1.60
2018-11-10T15:59:16.357Z,1.90
2018-11-10T16:03:21.132Z,1.37
2018-11-10T16:07:25.650Z,2.20
2018-11-10T16:11:29.575Z,1.93
2018-11-10T16:15:33.591Z,2.10
2018-11-10T16:19:37.757Z,2.10
2018-11-10T16:23:41.752Z,1.55
2018-11-10T16:27:46.080Z,2.17
2018-11-10T16:31:49.955Z,1.80
2018-11-10T16:35:53.932Z,1.60
2018-11-10T16:39:58.619Z,1.90
2018-11-10T16:44:02.582Z,2.00
2018-11-10T16:48:06.855Z,2.00
2018-11-10T16:52:10.783Z,2.12
2018-11-10T16:56:15.111Z,2.22
2018-11-10T17:00:19.840Z,1.55
2018-11-10T17:04:24.564Z,2.00
2018-11-10T17:08:28.642Z,1.55
2018-11-10T17:12:32.870Z,1.87
2018-11-10T17:16:36.793Z,1.70
2018-11-10T17:20:42.688Z,2.20
2018-11-10T17:24:46.648Z,1.87
2018-11-10T17:29:09.051Z,2.10
2018-11-10T17:33:13.048Z,2.00
2018-11-10T17:37:17.250Z,2.33
2018-11-10T17:41:21.204Z,2.25
2018-11-10T17:45:25.387Z,2.20
2018-11-10T17:49:29.421Z,2.43
2018-11-10T17:53:33.323Z,2.10
2018-11-10T17:57:37.378Z,2.23
2018-11-10T18:01:41.433Z,2.43
2018-11-10T18:05:45.440Z,2.33
2018-11-10T18:09:49.324Z,2.80
2018-11-10T18:13:53.235Z,1.90
2018-11-10T18:17:57.153Z,1.97
2018-11-10T18:22:01.756Z,2.27
2018-11-10T18:26:06.440Z,1.97
2018-11-10T18:30:12.330Z,1.93
2018-11-10T18:34:16.640Z,2.08
2018-11-10T18:38:20.899Z,1.82
2018-11-10T18:42:26.012Z,1.63
2018-11-10T18:46:29.907Z,1.30
2018-11-10T18:50:33.952Z,1.30
2018-11-10T18:54:38.135Z,1.50
2018-11-10T18:58:42.281Z,1.22
2018-11-10T19:02:46.207Z,1.13
2018-11-10T19:06:50.462Z,0.70
2018-11-10T19:10:54.409Z,0.60
2018-11-10T19:14:58.405Z,0.63
2018-11-10T19:19:02.332Z,0.70
2018-11-10T19:23:06.580Z,0.70
2018-11-10T19:27:10.484Z,0.60
2018-11-10T19:31:14.955Z,0.70
2018-11-10T19:35:19.603Z,1.20
2018-11-10T19:39:24.448Z,1.63
2018-11-10T19:43:28.371Z,3.10
2018-11-10T19:47:32.312Z,3.57
2018-11-10T19:51:37.690Z,3.93
2018-11-10T19:55:41.493Z,3.23
2018-11-10T19:59:46.447Z,3.60
2018-11-10T20:03:50.344Z,2.50
2018-11-10T20:07:54.544Z,3.37
2018-11-10T20:11:58.483Z,3.33
2018-11-10T20:16:02.465Z,4.60
2018-11-10T20:20:07.586Z,5.67
2018-11-10T20:24:11.524Z,7.30
2018-11-10T20:28:16.019Z,6.03
2018-11-10T20:32:19.977Z,2.40
2018-11-10T20:36:23.904Z,2.37
2018-11-10T20:40:27.810Z,2.43
2018-11-10T20:44:31.751Z,2.80
2018-11-10T20:48:35.849Z,3.63
2018-11-10T20:52:40.141Z,4.13
2018-11-10T20:56:44.048Z,4.00
2018-11-10T21:00:48.027Z,4.83
2018-11-10T21:04:51.884Z,5.12
2018-11-10T21:08:56.233Z,5.27
2018-11-10T21:13:00.249Z,5.57
2018-11-10T21:17:05.597Z,5.45
2018-11-10T21:21:09.769Z,5.62
2018-11-10T21:25:15.212Z,6.20
2018-11-10T21:29:19.455Z,5.97
2018-11-10T21:33:23.455Z,5.63
2018-11-10T21:37:27.428Z,5.90
2018-11-10T21:41:31.453Z,6.03
2018-11-10T21:45:35.920Z,5.30
2018-11-10T21:49:40.005Z,5.83
2018-11-10T21:53:44.148Z,5.13
2018-11-10T21:57:48.619Z,5.47
2018-11-10T22:01:53.535Z,5.30
2018-11-10T22:05:57.486Z,5.60
2018-11-10T22:10:01.467Z,5.57
2018-11-10T22:14:05.742Z,4.73
2018-11-10T22:18:10.334Z,5.35
2018-11-10T22:22:14.791Z,5.23
2018-11-10T22:26:19.057Z,5.13
2018-11-10T22:30:23.624Z,4.20
2018-11-10T22:34:28.049Z,5.27
2018-11-10T22:38:31.976Z,4.77
2018-11-10T22:42:36.982Z,3.97
2018-11-10T22:46:41.814Z,4.67
2018-11-10T22:50:45.827Z,4.30
2018-11-10T22:54:50.262Z,4.67
2018-11-10T22:58:54.185Z,4.20
2018-11-10T23:02:59.493Z,4.95
2018-11-10T23:07:03.528Z,4.77
2018-11-10T23:11:07.488Z,4.90
2018-11-10T23:15:11.654Z,5.73
2018-11-10T23:19:15.562Z,5.87
2018-11-10T23:23:19.530Z,6.80
2018-11-10T23:27:24.733Z,6.03
2018-11-10T23:31:28.689Z,6.83
2018-11-10T23:35:32.552Z,6.20
2018-11-10T23:39:36.501Z,5.53
2018-11-10T23:43:40.453Z,5.07
2018-11-10T23:47:44.863Z,5.30
2018-11-10T23:51:48.802Z,4.20
2018-11-10T23:55:52.732Z,4.37
2018-11-10T23:59:57.227Z,3.57
